This is the latest recevied weather packets stored in our database for station/object OK2ZI. If no packets are shown the sender has not sent any weather packets the latest 10 day(s).
| Time | Temp. | Humidity | Pressure | Rain* | Wind** | Luminosity | Snow |
|---|---|---|---|---|---|---|---|
| 1777625647 | 13.89° C | 50% | 1025 hPa | 0 mm | - | - | - |
| 1777625527 | 13.89° C | 51% | 1025 hPa | 0 mm | - | - | - |
| 1777625287 | 14.44° C | 53% | 1025 hPa | 0 mm | - | - | - |
| 1777625166 | 14.44° C | 53% | 1025 hPa | 0 mm | - | - | - |
| 1777624326 | 14.44° C | 50% | 1025 hPa | 0 mm | - | - | - |
| 1777623125 | 13.33° C | 50% | 1025 hPa | 0 mm | - | - | - |
| 1777622886 | 13.33° C | 49% | 1025 hPa | 0 mm | - | - | - |
| 1777621327 | 12.78° C | 53% | 1025 hPa | 0 mm | - | - | - |
| 1777618447 | 11.11° C | 54% | 1025 hPa | 0 mm | - | - | - |
| 1777617487 | 10.56° C | 57% | 1025 hPa | 0 mm | - | - | - |
| 1777617367 | 10.56° C | 56% | 1025 hPa | 0 mm | - | - | - |
| 1777616527 | 9.44° C | 59% | 1025 hPa | 0 mm | - | - | - |
| 1777616287 | 9.44° C | 60% | 1025 hPa | 0 mm | - | - | - |
| 1777615222 | 8.89° C | 57% | 1025 hPa | 0 mm | - | - | - |
| 1777614366 | 8.33° C | 62% | 1025 hPa | 0 mm | - | - | - |
| 1777613047 | 7.22° C | 67% | 1025 hPa | 0 mm | - | - | - |
| 1777612567 | 6.67° C | 67% | 1025 hPa | 0 mm | - | - | - |
| 1777610647 | 4.44° C | 71% | 1025 hPa | 0 mm | - | - | - |
| 1777610167 | 3.89° C | 73% | 1025 hPa | 0 mm | - | - | - |
| 1777609209 | 3.89° C | 72% | 1025 hPa | 0 mm | - | - | - |
| 1777608022 | 2.78° C | 78% | 1025 hPa | 0 mm | - | - | - |
| 1777607167 | 3.33° C | 76% | 1025 hPa | 0 mm | - | - | - |
| 1777606686 | 3.89° C | 72% | 1024 hPa | 0 mm | - | - | - |
| 1777604886 | 4.44° C | 70% | 1024 hPa | 0 mm | - | - | - |
| 1777604526 | 5° C | 69% | 1024 hPa | 0 mm | - | - | - |
* Rain latest hour (hover to see other rain measurements)
** Current wind speed in m/s (hover to see current wind gust speed)